createdAt,value
2022-09-20T00:00:12.140Z,5.58
2022-09-20T00:00:45.497Z,5.28
2022-09-20T00:01:21.189Z,5.07
2022-09-20T00:01:53.523Z,4.57
2022-09-20T00:02:26.507Z,4.32
2022-09-20T00:02:59.052Z,5.28
2022-09-20T00:03:31.386Z,6.07
2022-09-20T00:04:05.813Z,4.55
2022-09-20T00:04:38.532Z,4.28
2022-09-20T00:05:11.176Z,6.14
2022-09-20T00:05:44.991Z,4.47
2022-09-20T00:06:19.010Z,5.03
2022-09-20T00:06:51.429Z,3.80
2022-09-20T00:07:23.798Z,4.65
2022-09-20T00:07:56.245Z,6.45
2022-09-20T00:08:28.929Z,7.55
2022-09-20T00:09:03.158Z,5.50
2022-09-20T00:09:35.660Z,5.90
2022-09-20T00:10:08.528Z,4.07
2022-09-20T00:10:40.998Z,7.43
2022-09-20T00:11:18.680Z,4.43
2022-09-20T00:11:51.723Z,5.68
2022-09-20T00:12:24.187Z,5.07
2022-09-20T00:12:56.588Z,4.35
2022-09-20T00:13:29.151Z,4.36
2022-09-20T00:14:02.642Z,6.07
2022-09-20T00:14:34.918Z,7.50
2022-09-20T00:15:07.446Z,3.88
2022-09-20T00:15:46.227Z,6.88
2022-09-20T00:16:23.126Z,5.18
2022-09-20T00:16:55.555Z,3.86
2022-09-20T00:17:27.925Z,6.00
2022-09-20T00:18:00.605Z,5.12
2022-09-20T00:18:33.098Z,6.52
2022-09-20T00:19:06.131Z,6.20
2022-09-20T00:19:38.782Z,4.30
2022-09-20T00:20:11.530Z,7.08
2022-09-20T00:20:47.080Z,5.57
2022-09-20T00:21:20.525Z,5.78
2022-09-20T00:21:53.194Z,6.43
2022-09-20T00:22:25.707Z,5.70
2022-09-20T00:22:58.371Z,3.63
2022-09-20T00:23:31.145Z,6.55
2022-09-20T00:24:03.679Z,6.60
2022-09-20T00:24:36.973Z,3.90
2022-09-20T00:25:09.466Z,3.58
2022-09-20T00:25:42.451Z,3.92
2022-09-20T00:26:15.093Z,5.13
2022-09-20T00:26:47.755Z,4.65
2022-09-20T00:27:20.029Z,4.78
2022-09-20T00:27:52.320Z,3.90
2022-09-20T00:28:25.025Z,6.32
2022-09-20T00:28:57.656Z,6.55
2022-09-20T00:29:30.202Z,4.20
2022-09-20T00:30:02.633Z,6.35
2022-09-20T00:30:35.497Z,5.57
2022-09-20T00:31:08.273Z,6.22
2022-09-20T00:31:43.491Z,4.60
2022-09-20T00:32:16.059Z,4.97
2022-09-20T00:32:48.384Z,3.45
2022-09-20T00:33:21.278Z,4.53
2022-09-20T00:34:15.585Z,4.98
2022-09-20T00:35:06.394Z,5.78
2022-09-20T00:35:38.735Z,7.60
2022-09-20T00:36:11.088Z,5.18
2022-09-20T00:36:43.828Z,5.85
2022-09-20T00:37:16.158Z,4.60
2022-09-20T00:37:48.532Z,6.47
2022-09-20T00:38:20.988Z,6.60
2022-09-20T00:39:00.414Z,6.00
2022-09-20T00:39:32.828Z,5.50
2022-09-20T00:40:05.974Z,5.48
2022-09-20T00:40:38.512Z,5.70
2022-09-20T00:41:11.322Z,4.13
2022-09-20T00:41:43.818Z,5.00
2022-09-20T00:42:16.588Z,5.70
2022-09-20T00:42:49.505Z,7.72
2022-09-20T00:43:35.840Z,7.07
2022-09-20T00:44:26.957Z,6.75
2022-09-20T00:44:59.431Z,5.10
2022-09-20T00:45:32.294Z,5.72
2022-09-20T00:46:05.435Z,4.76
2022-09-20T00:46:43.128Z,6.90
2022-09-20T00:47:22.040Z,4.65
2022-09-20T00:47:54.312Z,7.15
2022-09-20T00:48:29.574Z,4.88
2022-09-20T00:49:05.314Z,7.82
2022-09-20T00:49:38.151Z,4.00
2022-09-20T00:50:19.638Z,4.26
2022-09-20T00:50:55.015Z,4.00
2022-09-20T00:51:29.730Z,6.22
2022-09-20T00:52:02.391Z,4.96
2022-09-20T00:52:36.212Z,5.32
2022-09-20T00:53:14.169Z,7.18
2022-09-20T00:53:49.331Z,4.88
2022-09-20T00:54:21.810Z,6.57
2022-09-20T00:54:54.494Z,6.82
2022-09-20T00:55:27.400Z,7.05
2022-09-20T00:56:01.782Z,4.82
2022-09-20T00:56:36.377Z,5.70
2022-09-20T00:57:08.860Z,4.62
2022-09-20T00:57:42.018Z,6.70
2022-09-20T00:58:14.879Z,5.03
2022-09-20T00:58:51.298Z,5.32
2022-09-20T00:59:38.781Z,5.53
2022-09-20T01:00:11.633Z,5.25
2022-09-20T01:00:45.155Z,5.32
2022-09-20T01:01:18.186Z,5.43
2022-09-20T01:01:53.002Z,6.25
2022-09-20T01:02:27.943Z,4.70
2022-09-20T01:03:03.598Z,6.97
2022-09-20T01:03:36.804Z,7.20
2022-09-20T01:04:09.086Z,6.40
2022-09-20T01:04:42.790Z,6.70
2022-09-20T01:05:15.966Z,6.82
2022-09-20T01:05:48.304Z,4.92
2022-09-20T01:06:20.846Z,5.05
2022-09-20T01:06:54.585Z,5.50
2022-09-20T01:07:27.658Z,4.53
2022-09-20T01:07:59.988Z,4.85
2022-09-20T01:08:33.697Z,4.95
2022-09-20T01:09:07.627Z,7.70
2022-09-20T01:09:40.007Z,4.10
2022-09-20T01:10:12.366Z,5.50
2022-09-20T01:10:44.802Z,5.43
2022-09-20T01:11:17.405Z,5.60
2022-09-20T01:11:50.858Z,4.13
2022-09-20T01:12:26.345Z,5.32
2022-09-20T01:12:58.849Z,4.43
2022-09-20T01:13:31.268Z,4.30
2022-09-20T01:14:03.842Z,5.32
2022-09-20T01:14:36.243Z,4.42
2022-09-20T01:15:09.682Z,4.34
2022-09-20T01:15:42.505Z,4.75
2022-09-20T01:16:16.346Z,3.90
2022-09-20T01:16:48.871Z,3.78
2022-09-20T01:17:23.124Z,4.38
2022-09-20T01:17:56.882Z,5.46
2022-09-20T01:18:30.217Z,3.92
2022-09-20T01:19:08.774Z,5.05
2022-09-20T01:19:59.004Z,5.68
2022-09-20T01:20:32.462Z,4.25
2022-09-20T01:21:06.262Z,8.35
2022-09-20T01:21:38.628Z,6.22
2022-09-20T01:22:22.505Z,5.15
2022-09-20T01:23:13.493Z,3.92
2022-09-20T01:23:52.071Z,4.55
2022-09-20T01:24:51.038Z,4.35
2022-09-20T01:25:38.166Z,3.95
2022-09-20T01:26:22.434Z,4.05
2022-09-20T01:26:58.521Z,4.10
2022-09-20T01:27:36.935Z,5.28
2022-09-20T01:28:09.436Z,6.07
2022-09-20T01:28:43.970Z,3.54
2022-09-20T01:29:36.898Z,5.35
2022-09-20T01:30:12.598Z,4.22
2022-09-20T01:30:51.990Z,5.32
2022-09-20T01:31:29.586Z,5.25
2022-09-20T01:32:03.637Z,4.62
2022-09-20T01:32:43.222Z,5.56
2022-09-20T01:33:18.897Z,4.05
2022-09-20T01:34:01.280Z,4.97
2022-09-20T01:34:34.956Z,7.43
2022-09-20T01:35:08.483Z,6.07
2022-09-20T01:35:42.168Z,7.03
2022-09-20T01:36:18.498Z,5.50
2022-09-20T01:36:55.602Z,4.50
2022-09-20T01:37:33.274Z,7.47
2022-09-20T01:38:12.444Z,5.07
2022-09-20T01:38:48.640Z,6.30
2022-09-20T01:39:30.214Z,7.22
2022-09-20T01:40:10.846Z,5.57
2022-09-20T01:41:04.216Z,6.97
2022-09-20T01:41:57.965Z,6.38
2022-09-20T01:42:33.188Z,5.28
2022-09-20T01:43:05.657Z,5.05
2022-09-20T01:43:49.867Z,7.86
2022-09-20T01:44:22.350Z,6.30
2022-09-20T01:45:06.985Z,4.98
2022-09-20T01:45:41.823Z,7.72
2022-09-20T01:46:24.952Z,7.02
2022-09-20T01:47:01.775Z,6.50
2022-09-20T01:47:40.678Z,5.86
2022-09-20T01:48:18.731Z,5.72
2022-09-20T01:48:52.155Z,8.08
2022-09-20T01:49:43.166Z,5.12
2022-09-20T01:50:23.036Z,4.60
2022-09-20T01:50:55.267Z,4.63
2022-09-20T01:51:30.518Z,6.22
2022-09-20T01:52:17.635Z,6.04
2022-09-20T01:52:52.615Z,5.10
2022-09-20T01:53:27.574Z,5.02
2022-09-20T01:54:05.713Z,5.64
2022-09-20T01:54:49.860Z,6.22
2022-09-20T01:55:45.528Z,9.02
2022-09-20T01:56:36.514Z,4.92
2022-09-20T01:57:11.747Z,6.12
2022-09-20T01:57:44.254Z,7.02
2022-09-20T01:58:16.731Z,6.78
2022-09-20T01:59:22.443Z,5.98
2022-09-20T02:00:03.389Z,5.16
2022-09-20T02:00:40.284Z,5.40
2022-09-20T02:01:12.667Z,6.54
2022-09-20T02:01:54.192Z,7.80
2022-09-20T02:02:45.439Z,7.56
2022-09-20T02:03:20.410Z,5.52
2022-09-20T02:03:52.889Z,4.76
2022-09-20T02:04:25.196Z,6.90
2022-09-20T02:05:00.380Z,8.32
2022-09-20T02:05:33.057Z,6.38
2022-09-20T02:06:08.361Z,3.85
2022-09-20T02:07:05.711Z,8.24
2022-09-20T02:07:40.675Z,4.58
2022-09-20T02:08:30.831Z,6.94
2022-09-20T02:09:03.306Z,4.92
2022-09-20T02:09:41.938Z,5.52
2022-09-20T02:10:14.532Z,5.54
2022-09-20T02:10:52.562Z,4.74
2022-09-20T02:11:57.201Z,6.98
2022-09-20T02:12:33.886Z,6.46
2022-09-20T02:13:06.407Z,6.06
2022-09-20T02:13:41.384Z,4.30
2022-09-20T02:14:31.607Z,8.85
2022-09-20T02:15:03.848Z,6.40
2022-09-20T02:15:54.382Z,4.78
2022-09-20T02:16:35.479Z,9.02
2022-09-20T02:17:14.262Z,8.46
2022-09-20T02:18:04.112Z,5.47
2022-09-20T02:18:36.577Z,5.07
2022-09-20T02:19:11.800Z,4.48
2022-09-20T02:20:02.436Z,6.42
2022-09-20T02:20:40.837Z,7.24
2022-09-20T02:21:25.914Z,5.34
2022-09-20T02:22:06.825Z,4.10
2022-09-20T02:22:41.826Z,8.38
2022-09-20T02:23:19.904Z,5.70
2022-09-20T02:23:59.821Z,8.26
2022-09-20T02:24:47.062Z,4.93
2022-09-20T02:25:22.206Z,7.02
2022-09-20T02:26:00.250Z,9.02
2022-09-20T02:26:44.501Z,6.32
2022-09-20T02:27:35.238Z,4.76
2022-09-20T02:28:13.336Z,4.82
2022-09-20T02:28:49.630Z,6.08
2022-09-20T02:29:48.217Z,5.54
2022-09-20T02:30:21.046Z,4.82
2022-09-20T02:31:00.623Z,7.90
2022-09-20T02:31:33.028Z,8.30
2022-09-20T02:32:25.350Z,6.62
2022-09-20T02:33:16.141Z,6.20
2022-09-20T02:33:51.638Z,6.76
2022-09-20T02:34:23.991Z,4.44
2022-09-20T02:34:56.311Z,5.34
2022-09-20T02:35:37.406Z,4.62
2022-09-20T02:36:12.397Z,3.02
2022-09-20T02:36:59.575Z,4.80
2022-09-20T02:37:43.908Z,3.14
2022-09-20T02:38:28.334Z,5.26
2022-09-20T02:39:15.979Z,5.02
2022-09-20T02:40:01.529Z,4.64
2022-09-20T02:40:36.648Z,7.32
2022-09-20T02:41:33.550Z,5.06
2022-09-20T02:42:21.541Z,4.98
2022-09-20T02:42:59.894Z,4.24
2022-09-20T02:43:47.452Z,4.90
2022-09-20T02:44:28.226Z,4.54
2022-09-20T02:45:07.097Z,4.54
2022-09-20T02:45:46.710Z,7.26
2022-09-20T02:46:57.323Z,7.35
2022-09-20T02:47:43.570Z,3.78
2022-09-20T02:48:20.169Z,5.78
2022-09-20T02:49:01.354Z,8.13
2022-09-20T02:49:46.287Z,5.22
2022-09-20T02:50:24.766Z,5.74
2022-09-20T02:51:02.479Z,7.90
2022-09-20T02:51:43.076Z,7.44
2022-09-20T02:52:38.344Z,7.46
2022-09-20T02:53:10.691Z,5.57
2022-09-20T02:53:43.083Z,4.25
2022-09-20T02:54:34.265Z,6.60
2022-09-20T02:55:17.784Z,4.22
2022-09-20T02:56:02.488Z,6.92
2022-09-20T02:57:01.063Z,4.72
2022-09-20T02:57:33.937Z,4.85
2022-09-20T02:58:21.360Z,4.90
2022-09-20T02:59:03.340Z,4.48
2022-09-20T02:59:43.398Z,4.78
2022-09-20T03:00:59.913Z,4.30
2022-09-20T03:01:35.309Z,5.50
2022-09-20T03:02:20.131Z,6.32
2022-09-20T03:02:52.633Z,6.97
2022-09-20T03:03:33.666Z,4.60
2022-09-20T03:04:24.680Z,6.70
2022-09-20T03:04:59.878Z,3.62
2022-09-20T03:05:36.330Z,5.08
2022-09-20T03:06:23.473Z,4.62
2022-09-20T03:07:01.284Z,5.32
2022-09-20T03:07:51.738Z,5.30
2022-09-20T03:08:26.758Z,5.78
2022-09-20T03:09:11.276Z,5.88
2022-09-20T03:09:47.978Z,4.56
2022-09-20T03:10:43.717Z,4.72
2022-09-20T03:11:34.251Z,3.36
2022-09-20T03:12:24.950Z,5.68
2022-09-20T03:13:00.279Z,5.50
2022-09-20T03:13:32.714Z,6.04
2022-09-20T03:14:10.724Z,5.70
2022-09-20T03:14:52.409Z,4.44
2022-09-20T03:15:42.856Z,7.16
2022-09-20T03:16:33.604Z,4.08
2022-09-20T03:17:14.263Z,4.36
2022-09-20T03:17:49.275Z,4.22
2022-09-20T03:18:33.433Z,5.54
2022-09-20T03:19:33.816Z,7.58
2022-09-20T03:20:06.621Z,8.44
2022-09-20T03:20:51.002Z,5.68
2022-09-20T03:21:35.305Z,7.18
2022-09-20T03:22:19.850Z,5.56
2022-09-20T03:22:58.474Z,5.12
2022-09-20T03:23:49.230Z,4.30
2022-09-20T03:24:32.656Z,6.12
2022-09-20T03:25:05.279Z,7.28
2022-09-20T03:25:50.782Z,4.76
2022-09-20T03:26:41.232Z,5.24
2022-09-20T03:27:31.842Z,5.34
2022-09-20T03:28:15.477Z,4.66
2022-09-20T03:28:55.427Z,4.36
2022-09-20T03:29:47.509Z,6.75
2022-09-20T03:30:20.210Z,5.44
2022-09-20T03:31:04.908Z,9.52
2022-09-20T03:31:55.562Z,4.38
2022-09-20T03:32:46.652Z,6.84
2022-09-20T03:33:24.647Z,6.72
2022-09-20T03:34:02.770Z,6.52
2022-09-20T03:34:37.866Z,8.06
2022-09-20T03:35:19.270Z,8.56
2022-09-20T03:36:00.414Z,6.40
2022-09-20T03:36:38.568Z,10.34
2022-09-20T03:37:11.156Z,12.00
2022-09-20T03:37:46.187Z,8.68
2022-09-20T03:38:18.657Z,7.60
2022-09-20T03:38:54.111Z,7.62
2022-09-20T03:39:42.040Z,7.04
2022-09-20T03:40:34.277Z,6.34
2022-09-20T03:41:06.762Z,6.34
2022-09-20T03:41:47.836Z,10.20
2022-09-20T03:42:20.194Z,8.38
2022-09-20T03:42:53.302Z,7.40
2022-09-20T03:43:26.149Z,8.42
2022-09-20T03:43:58.381Z,8.02
2022-09-20T03:44:34.377Z,7.14
2022-09-20T03:45:06.675Z,6.24
2022-09-20T03:45:50.739Z,4.92
2022-09-20T03:46:30.225Z,8.16
2022-09-20T03:47:14.177Z,8.88
2022-09-20T03:47:58.753Z,4.34
2022-09-20T03:48:34.018Z,8.26
2022-09-20T03:49:25.282Z,5.04
2022-09-20T03:50:00.546Z,6.62
2022-09-20T03:50:38.636Z,10.72
2022-09-20T03:51:14.233Z,5.84
2022-09-20T03:51:46.553Z,8.10
2022-09-20T03:52:39.494Z,5.92
2022-09-20T03:53:30.487Z,6.00
2022-09-20T03:54:21.480Z,4.60
2022-09-20T03:55:17.000Z,5.14
2022-09-20T03:55:52.306Z,4.42
2022-09-20T03:56:33.530Z,8.14
2022-09-20T03:57:23.811Z,4.84
2022-09-20T03:57:56.552Z,3.56
2022-09-20T03:58:49.606Z,6.00
2022-09-20T03:59:40.388Z,4.26
2022-09-20T04:00:15.994Z,5.66
2022-09-20T04:00:57.478Z,4.58
2022-09-20T04:01:45.466Z,3.94
2022-09-20T04:02:23.490Z,7.38
2022-09-20T04:03:00.731Z,7.20
2022-09-20T04:03:46.228Z,4.52
2022-09-20T04:04:30.350Z,6.00
2022-09-20T04:05:07.315Z,4.40
2022-09-20T04:05:42.214Z,7.04
2022-09-20T04:06:14.514Z,6.64
2022-09-20T04:07:09.998Z,4.50
2022-09-20T04:07:48.302Z,4.90
2022-09-20T04:08:26.798Z,9.20
2022-09-20T04:09:17.747Z,5.08
2022-09-20T04:09:55.989Z,4.46
2022-09-20T04:10:59.336Z,4.96
2022-09-20T04:11:37.976Z,5.00
2022-09-20T04:12:23.232Z,4.86
2022-09-20T04:13:10.790Z,5.48
2022-09-20T04:13:49.280Z,4.42
2022-09-20T04:14:27.440Z,3.04
2022-09-20T04:15:21.262Z,8.30
2022-09-20T04:16:02.246Z,4.34
2022-09-20T04:16:34.881Z,5.46
2022-09-20T04:17:16.314Z,6.58
2022-09-20T04:17:48.776Z,4.80
2022-09-20T04:18:27.633Z,10.82
2022-09-20T04:19:15.446Z,12.04
2022-09-20T04:19:53.906Z,4.54
2022-09-20T04:20:33.188Z,4.47
2022-09-20T04:21:05.473Z,4.05
2022-09-20T04:21:43.651Z,4.58
2022-09-20T04:22:16.596Z,4.88
2022-09-20T04:22:51.648Z,6.63
2022-09-20T04:23:42.419Z,5.16
2022-09-20T04:24:23.789Z,4.66
2022-09-20T04:24:59.262Z,6.44
2022-09-20T04:25:41.760Z,5.14
2022-09-20T04:26:20.590Z,5.46
2022-09-20T04:26:58.188Z,7.35
2022-09-20T04:27:30.558Z,4.56
2022-09-20T04:28:09.781Z,5.85
2022-09-20T04:29:08.958Z,5.13
2022-09-20T04:30:17.142Z,6.18
2022-09-20T04:30:51.883Z,5.72
2022-09-20T04:31:44.511Z,6.20
2022-09-20T04:32:31.040Z,6.14
2022-09-20T04:33:06.215Z,7.50
2022-09-20T04:33:41.707Z,7.24
2022-09-20T04:34:19.366Z,6.70
2022-09-20T04:35:16.078Z,6.80
2022-09-20T04:36:25.942Z,7.24
2022-09-20T04:36:59.551Z,6.50
2022-09-20T04:37:33.724Z,7.30
2022-09-20T04:38:09.609Z,6.82
2022-09-20T04:38:42.264Z,8.78
2022-09-20T04:39:14.566Z,5.24
2022-09-20T04:39:49.581Z,10.48
2022-09-20T04:40:24.751Z,10.36
2022-09-20T04:41:00.356Z,10.38
2022-09-20T04:41:38.838Z,7.90
2022-09-20T04:42:16.947Z,6.80
2022-09-20T04:43:13.086Z,7.04
2022-09-20T04:43:54.386Z,9.76
2022-09-20T04:44:27.932Z,8.02
2022-09-20T04:45:08.097Z,8.55
2022-09-20T04:45:58.624Z,6.26
2022-09-20T04:46:36.970Z,9.88
2022-09-20T04:47:21.722Z,8.78
2022-09-20T04:47:54.030Z,7.06
2022-09-20T04:48:45.045Z,9.98
2022-09-20T04:49:35.736Z,10.60
2022-09-20T04:50:26.443Z,12.94
2022-09-20T04:51:21.087Z,19.72
2022-09-20T04:51:54.453Z,11.98
2022-09-20T04:52:29.607Z,17.48
2022-09-20T04:53:19.157Z,18.40
2022-09-20T04:53:57.782Z,19.58
2022-09-20T04:54:48.959Z,21.50
2022-09-20T04:55:24.164Z,18.02
2022-09-20T04:55:59.290Z,21.44
2022-09-20T04:56:46.940Z,19.52
2022-09-20T04:57:19.193Z,19.85
2022-09-20T04:58:10.201Z,16.54
2022-09-20T04:59:01.036Z,20.32
2022-09-20T04:59:53.454Z,16.80
2022-09-20T05:00:30.419Z,19.32
2022-09-20T05:01:02.874Z,17.02
2022-09-20T05:01:44.299Z,16.68
2022-09-20T05:02:34.567Z,14.90
2022-09-20T05:03:06.909Z,11.20
2022-09-20T05:03:46.608Z,12.18
2022-09-20T05:04:45.492Z,13.68
2022-09-20T05:05:36.946Z,13.92
2022-09-20T05:06:28.314Z,11.86
2022-09-20T05:07:09.737Z,13.42
2022-09-20T05:07:59.006Z,13.48
2022-09-20T05:08:49.990Z,13.27
2022-09-20T05:09:41.352Z,12.82
2022-09-20T05:10:15.686Z,13.68
2022-09-20T05:10:53.945Z,14.38
2022-09-20T05:11:47.416Z,13.16
2022-09-20T05:12:28.322Z,12.23
2022-09-20T05:13:05.449Z,9.68
2022-09-20T05:13:38.481Z,14.64
2022-09-20T05:14:13.991Z,12.48
2022-09-20T05:15:01.322Z,17.52
2022-09-20T05:15:53.054Z,10.18
2022-09-20T05:16:44.215Z,11.24
2022-09-20T05:17:22.594Z,8.70
2022-09-20T05:17:54.974Z,14.57
2022-09-20T05:18:39.394Z,10.64
2022-09-20T05:19:12.412Z,11.18
2022-09-20T05:19:56.173Z,11.02
2022-09-20T05:20:51.620Z,11.10
2022-09-20T05:21:24.556Z,11.24
2022-09-20T05:22:20.002Z,10.22
2022-09-20T05:23:10.832Z,12.08
2022-09-20T05:24:01.533Z,9.86
2022-09-20T05:24:53.002Z,14.20
2022-09-20T05:25:38.577Z,7.76
2022-09-20T05:26:10.836Z,9.42
2022-09-20T05:26:59.883Z,9.72
2022-09-20T05:27:38.115Z,9.95
2022-09-20T05:28:16.118Z,9.63
2022-09-20T05:28:51.277Z,5.34
2022-09-20T05:29:42.584Z,7.20
2022-09-20T05:30:30.350Z,10.70
2022-09-20T05:31:11.782Z,12.24
2022-09-20T05:31:50.087Z,15.84
2022-09-20T05:32:28.173Z,12.22
2022-09-20T05:33:06.327Z,15.30
2022-09-20T05:34:02.299Z,10.48
2022-09-20T05:34:42.709Z,8.26
2022-09-20T05:35:15.401Z,10.04
2022-09-20T05:35:55.298Z,7.94
2022-09-20T05:36:41.753Z,6.93
2022-09-20T05:37:16.750Z,6.90
2022-09-20T05:38:01.854Z,7.78
2022-09-20T05:38:48.890Z,9.64
2022-09-20T05:39:38.673Z,6.30
2022-09-20T05:40:29.572Z,7.32
2022-09-20T05:41:17.718Z,6.16
2022-09-20T05:41:56.514Z,6.96
2022-09-20T05:42:40.400Z,4.22
2022-09-20T05:43:14.402Z,6.03
2022-09-20T05:44:07.607Z,6.38
2022-09-20T05:44:51.786Z,4.44
2022-09-20T05:45:26.686Z,7.20
2022-09-20T05:46:16.510Z,6.53
2022-09-20T05:46:54.724Z,4.85
2022-09-20T05:47:29.662Z,5.68
2022-09-20T05:48:02.001Z,7.44
2022-09-20T05:48:39.940Z,8.25
2022-09-20T05:49:24.048Z,6.46
2022-09-20T05:50:15.770Z,8.98
2022-09-20T05:51:06.275Z,8.54
2022-09-20T05:51:54.148Z,8.05
2022-09-20T05:52:44.879Z,10.38
2022-09-20T05:53:20.159Z,5.52
2022-09-20T05:53:58.620Z,5.78
2022-09-20T05:54:56.846Z,9.08
2022-09-20T05:55:38.666Z,5.75
2022-09-20T05:56:17.130Z,6.52
2022-09-20T05:57:07.520Z,7.16
2022-09-20T05:57:50.210Z,7.35
2022-09-20T05:58:32.312Z,6.53
2022-09-20T05:59:22.904Z,7.48
2022-09-20T06:00:13.792Z,6.26
2022-09-20T06:00:49.819Z,9.40
2022-09-20T06:01:26.878Z,5.63
2022-09-20T06:02:07.745Z,6.10
2022-09-20T06:02:48.475Z,7.06
2022-09-20T06:03:26.436Z,6.64
2022-09-20T06:04:08.505Z,7.63
2022-09-20T06:05:00.493Z,6.74
2022-09-20T06:05:50.302Z,10.24
2022-09-20T06:06:38.722Z,7.53
2022-09-20T06:07:38.902Z,5.60
2022-09-20T06:08:14.006Z,4.98
2022-09-20T06:08:58.217Z,6.40
2022-09-20T06:09:53.528Z,4.95
2022-09-20T06:10:31.271Z,7.70
2022-09-20T06:11:14.200Z,5.34
2022-09-20T06:11:46.914Z,5.34
2022-09-20T06:12:35.885Z,4.74
2022-09-20T06:13:20.872Z,6.70
2022-09-20T06:13:53.503Z,10.10
2022-09-20T06:15:00.283Z,6.12
2022-09-20T06:15:45.075Z,5.38
2022-09-20T06:16:25.414Z,12.26
2022-09-20T06:17:16.487Z,7.10
2022-09-20T06:17:55.740Z,6.88
2022-09-20T06:18:31.727Z,5.82
2022-09-20T06:19:22.779Z,6.62
2022-09-20T06:20:01.246Z,7.08
2022-09-20T06:20:37.646Z,6.94
2022-09-20T06:21:21.835Z,6.00
2022-09-20T06:21:55.775Z,6.38
2022-09-20T06:22:31.082Z,5.18
2022-09-20T06:23:04.706Z,9.58
2022-09-20T06:23:37.248Z,8.02
2022-09-20T06:24:25.108Z,10.48
2022-09-20T06:25:11.246Z,6.50
2022-09-20T06:25:47.874Z,7.92
2022-09-20T06:26:23.827Z,6.88
2022-09-20T06:26:57.145Z,7.26
2022-09-20T06:27:39.721Z,8.02
2022-09-20T06:28:17.812Z,8.95
2022-09-20T06:28:59.667Z,4.90
2022-09-20T06:29:36.862Z,5.95
2022-09-20T06:30:16.127Z,6.47
2022-09-20T06:30:52.122Z,7.93
2022-09-20T06:31:24.548Z,6.28
2022-09-20T06:31:56.934Z,6.97
2022-09-20T06:32:29.219Z,7.05
2022-09-20T06:33:13.258Z,6.20
2022-09-20T06:33:51.246Z,5.72
2022-09-20T06:34:23.589Z,5.55
2022-09-20T06:34:56.083Z,6.78
2022-09-20T06:35:32.316Z,5.60
2022-09-20T06:36:29.784Z,8.68
2022-09-20T06:37:32.992Z,10.10
2022-09-20T06:38:31.134Z,8.65
2022-09-20T06:39:24.950Z,5.75
2022-09-20T06:40:26.570Z,6.93
2022-09-20T06:41:18.092Z,5.47
2022-09-20T06:41:51.652Z,6.78
2022-09-20T06:42:27.001Z,7.90
2022-09-20T06:43:00.995Z,8.20
2022-09-20T06:43:34.112Z,5.65
2022-09-20T06:44:07.192Z,4.28
2022-09-20T06:44:41.668Z,4.88
2022-09-20T06:45:14.107Z,7.72
2022-09-20T06:45:48.112Z,7.82
2022-09-20T06:46:21.029Z,5.13
2022-09-20T06:46:54.653Z,4.85
2022-09-20T06:47:27.223Z,3.80
2022-09-20T06:48:02.414Z,6.82
2022-09-20T06:48:34.746Z,6.63
2022-09-20T06:49:09.720Z,4.90
2022-09-20T06:49:42.686Z,6.70
2022-09-20T06:50:16.663Z,7.78
2022-09-20T06:50:49.090Z,6.78
2022-09-20T06:51:22.630Z,5.05
2022-09-20T06:51:56.070Z,7.30
2022-09-20T06:52:28.621Z,9.15
2022-09-20T06:53:00.923Z,6.40
2022-09-20T06:53:35.618Z,4.72
2022-09-20T06:54:11.673Z,5.38
2022-09-20T06:54:46.136Z,5.63
2022-09-20T06:55:27.186Z,5.26
2022-09-20T06:56:01.999Z,5.93
2022-09-20T06:56:36.594Z,6.30
2022-09-20T06:57:10.745Z,6.63
2022-09-20T06:57:43.508Z,7.03
2022-09-20T06:58:15.847Z,4.93
2022-09-20T06:58:48.336Z,4.13
2022-09-20T06:59:20.857Z,4.55
2022-09-20T06:59:53.185Z,5.05
2022-09-20T07:00:25.665Z,7.30
2022-09-20T07:00:58.083Z,5.40
2022-09-20T07:01:31.574Z,4.65
2022-09-20T07:02:04.059Z,5.70
2022-09-20T07:02:36.526Z,8.30
2022-09-20T07:03:08.928Z,8.00
2022-09-20T07:03:41.798Z,7.60
2022-09-20T07:04:14.171Z,5.20
2022-09-20T07:04:46.483Z,3.58
2022-09-20T07:05:22.292Z,4.22
2022-09-20T07:05:54.584Z,6.45
2022-09-20T07:06:29.446Z,6.75
2022-09-20T07:07:06.111Z,7.05
2022-09-20T07:07:41.235Z,6.03
2022-09-20T07:08:13.911Z,6.75
2022-09-20T07:08:46.883Z,8.32
2022-09-20T07:09:19.222Z,4.30
2022-09-20T07:09:51.520Z,11.52
2022-09-20T07:10:23.965Z,7.20
2022-09-20T07:10:56.449Z,6.15
2022-09-20T07:11:28.937Z,6.90
2022-09-20T07:12:01.293Z,6.38
2022-09-20T07:12:35.290Z,6.45
2022-09-20T07:13:07.738Z,5.93
2022-09-20T07:13:40.056Z,5.10
2022-09-20T07:14:12.686Z,7.50
2022-09-20T07:14:45.000Z,5.85
2022-09-20T07:15:17.253Z,6.07
2022-09-20T07:15:50.791Z,5.68
2022-09-20T07:16:23.254Z,6.18
2022-09-20T07:16:56.056Z,7.78
2022-09-20T07:17:28.358Z,9.43
2022-09-20T07:18:01.059Z,7.63
2022-09-20T07:18:33.777Z,7.53
2022-09-20T07:19:06.768Z,6.40
2022-09-20T07:19:39.110Z,6.13
2022-09-20T07:20:11.839Z,7.70
2022-09-20T07:20:44.917Z,7.07
2022-09-20T07:21:18.256Z,9.60
2022-09-20T07:21:50.953Z,13.07
2022-09-20T07:22:23.363Z,6.55
2022-09-20T07:22:55.698Z,18.08
2022-09-20T07:23:29.896Z,8.55
2022-09-20T07:24:02.769Z,8.80
2022-09-20T07:24:35.227Z,8.90
2022-09-20T07:25:07.827Z,7.03
2022-09-20T07:25:40.613Z,6.85
2022-09-20T07:26:20.444Z,8.77
2022-09-20T07:26:57.071Z,4.05
2022-09-20T07:27:29.770Z,5.25
2022-09-20T07:28:02.290Z,6.60
2022-09-20T07:28:35.480Z,4.90
2022-09-20T07:29:08.113Z,7.13
2022-09-20T07:29:41.318Z,13.07
2022-09-20T07:30:14.628Z,12.00
2022-09-20T07:30:47.674Z,9.82
2022-09-20T07:31:20.921Z,7.78
2022-09-20T07:31:53.708Z,5.70
2022-09-20T07:32:27.042Z,8.43
2022-09-20T07:33:00.820Z,9.85
2022-09-20T07:33:33.141Z,8.93
2022-09-20T07:34:06.393Z,9.95
2022-09-20T07:34:38.730Z,10.27
2022-09-20T07:35:11.849Z,11.05
2022-09-20T07:35:44.118Z,8.57
2022-09-20T07:36:16.826Z,9.30
2022-09-20T07:36:49.595Z,8.02
2022-09-20T07:37:22.425Z,10.10
2022-09-20T07:37:58.106Z,8.15
2022-09-20T07:38:30.564Z,5.43
2022-09-20T07:39:03.706Z,10.18
2022-09-20T07:39:36.126Z,8.30
2022-09-20T07:40:09.760Z,5.13
2022-09-20T07:40:42.086Z,6.75
2022-09-20T07:41:14.346Z,4.55
2022-09-20T07:41:48.673Z,6.00
2022-09-20T07:42:21.207Z,8.40
2022-09-20T07:42:56.193Z,5.63
2022-09-20T07:43:29.779Z,5.40
2022-09-20T07:44:21.092Z,5.57
2022-09-20T07:44:53.422Z,5.00
2022-09-20T07:45:25.963Z,7.32
2022-09-20T07:45:59.617Z,5.85
2022-09-20T07:46:36.220Z,7.65
2022-09-20T07:47:10.397Z,5.72
2022-09-20T07:47:45.080Z,6.63
2022-09-20T07:48:18.130Z,4.88
2022-09-20T07:48:50.598Z,8.68
2022-09-20T07:49:23.292Z,4.97
2022-09-20T07:49:55.670Z,5.97
2022-09-20T07:50:28.103Z,8.63
2022-09-20T07:51:08.539Z,11.05
2022-09-20T07:51:41.693Z,8.23
2022-09-20T07:52:14.964Z,8.07
2022-09-20T07:52:47.384Z,7.00
2022-09-20T07:53:19.782Z,6.68
2022-09-20T07:53:54.397Z,7.70
2022-09-20T07:54:27.780Z,4.05
2022-09-20T07:55:00.040Z,7.78
2022-09-20T07:55:32.512Z,5.63
2022-09-20T07:56:12.032Z,5.45
2022-09-20T07:56:45.068Z,10.13
2022-09-20T07:57:17.544Z,8.35
2022-09-20T07:57:49.952Z,8.50
2022-09-20T07:58:22.390Z,8.38
2022-09-20T07:58:54.941Z,5.18
2022-09-20T07:59:27.423Z,5.13
2022-09-20T07:59:59.706Z,5.20
2022-09-20T08:00:32.034Z,5.93
2022-09-20T08:01:05.634Z,3.80
2022-09-20T08:01:39.065Z,7.45
2022-09-20T08:02:15.204Z,6.65
2022-09-20T08:02:47.587Z,4.68
2022-09-20T08:03:20.179Z,5.03
2022-09-20T08:03:52.494Z,5.93
2022-09-20T08:04:24.988Z,5.18
2022-09-20T08:04:57.369Z,5.25
2022-09-20T08:05:29.690Z,5.95
2022-09-20T08:06:02.994Z,6.38
2022-09-20T08:06:39.028Z,4.97
2022-09-20T08:07:12.723Z,5.10
2022-09-20T08:07:45.135Z,6.32
2022-09-20T08:08:18.241Z,4.47
2022-09-20T08:08:51.854Z,3.95
2022-09-20T08:09:24.685Z,4.82
2022-09-20T08:09:57.034Z,9.40
2022-09-20T08:10:29.372Z,5.60
2022-09-20T08:11:02.985Z,4.43
2022-09-20T08:11:36.394Z,6.85
2022-09-20T08:14:09.602Z,5.10
2022-09-20T08:14:41.958Z,7.10
2022-09-20T08:15:14.342Z,6.60
2022-09-20T08:15:48.678Z,4.95
2022-09-20T08:16:21.948Z,4.82
2022-09-20T08:16:54.960Z,5.85
2022-09-20T08:17:27.384Z,3.95
2022-09-20T08:17:59.749Z,5.00
2022-09-20T08:18:32.390Z,6.80
2022-09-20T08:19:04.846Z,5.00
2022-09-20T08:19:40.285Z,5.57
2022-09-20T08:20:12.534Z,6.18
2022-09-20T08:20:44.898Z,4.50
2022-09-20T08:21:17.843Z,7.30
2022-09-20T08:21:51.586Z,7.05
2022-09-20T08:22:24.703Z,8.63
2022-09-20T08:23:21.989Z,7.68
2022-09-20T08:23:51.503Z,6.53
2022-09-20T08:24:26.359Z,5.93
2022-09-20T08:24:58.991Z,5.07
2022-09-20T08:25:31.599Z,5.30
2022-09-20T08:26:04.581Z,5.30
2022-09-20T08:26:37.296Z,4.57
2022-09-20T08:27:09.592Z,4.80
2022-09-20T08:27:42.276Z,6.25
2022-09-20T08:28:14.524Z,4.97
2022-09-20T08:28:47.527Z,5.05
2022-09-20T08:29:20.063Z,5.68
2022-09-20T08:29:55.608Z,5.63
2022-09-20T08:30:28.156Z,5.57
2022-09-20T08:31:07.788Z,9.98
2022-09-20T08:31:42.556Z,5.78
2022-09-20T08:32:15.249Z,4.85
2022-09-20T08:32:47.675Z,5.72
2022-09-20T08:33:19.952Z,6.72